Eareckson Air Station
PASY : now visible

Airfield :











YOU CAN JOIN US ON...

 
LOGIN :

Register | Disclaimer

   EN    FR    IT 

 









Legend :    VFR   Marginal VFR   IFR   Intensive IFR   Very Intensive IFR
Visi :
Ceiling :
>= 8 km
>= 3000ft
5 to 8 km
1000 to 3000 ft
1500m to 5 km
500 to 1000 ft
800 to 1500m
200 to 500 ft
< 800m
< 200 ft
Symbols :   Thunderstorms  Fog  Heavy snow  Heavy precipitations  Wind > 20 kt






- Airport Elevation : 95 ft
- IATA code : SYA


PASY - Eareckson Air Station

CURRENT METAR :
  • 021255Z 22024G30KT 7SM OVC021 03/00 A3015 RMK AO2A PK WND 23034/01 CIG 018V024 SLP211 T00300004 RVRNO FZRANO PNO $

EXPIRED METARs :
  • 021155Z 23027G32KT 7SM OVC020 03/00 A3015 RMK AO2A PK WND 22033/42 CIG 017V024 SLP211 T00300004 10031 20028 56012 RVRNO FZRANO PNO $
  • 021055Z 22025G34KT 7SM BKN022 03/00 A3016 RMK AO2A PK WND 22034/45 CIG 017V025 SLP214 T00300003 RVRNO FZRANO PNO $

TAF TAF PASY
Valid from the 02 at 06:00 until the 03 at 12:00 UTC


020600Z 0206/0312 24020G30KT 6000 BR BKN018 610189 520003 QNH3005INS
BECMG 0215/0216 19025KT 6000 -RA BR SCT003 OVC010 650109 510003 QNH3002INS
BECMG 0216/0218 18025KT 6000 -RA BR OVC003 650159 510003 QNH2980INS
BECMG 0221/0222 19025KT 6000 -RA BR OVC003 650758 510003 QNH2967INS
BECMG 0301/0302 19025G30KT 6000 BR OVC006 610807 510003 QNH2960INS
BECMG 0308/0309 19030G35KT 6000 BR OVC006 520003 QNH2952INS TX03/0206Z TN01/0219Z



MET'MAP, your aeronautical weather chart ! - Copyright ORBIFLY December 2007 - Disclaimer

ORBIFLY MET'MAP TEAM :

Programming & Development : Alexandra Zaïnal
Concept & original design : Baudouin d'Aumeries
Assistance for programming : Marc-Olivier Méhu
Technical & hardware support : Manuel Goepfert

Contact : metmap@orbifly.com




SOURCES & CREDITS :

   NOAA       Earth
Advisory